createdAt,value
2019-05-01T00:01:23.150Z,8.20
2019-05-01T00:03:55.989Z,8.10
2019-05-01T00:06:26.126Z,8.00
2019-05-01T00:08:54.664Z,8.00
2019-05-01T00:11:23.255Z,8.10
2019-05-01T00:13:51.743Z,8.40
2019-05-01T00:16:20.211Z,8.20
2019-05-01T00:18:48.757Z,8.40
2019-05-01T00:21:19.269Z,8.40
2019-05-01T00:23:47.755Z,8.50
2019-05-01T00:26:16.289Z,8.20
2019-05-01T00:28:44.789Z,8.10
2019-05-01T00:31:13.499Z,8.10
2019-05-01T00:33:41.971Z,7.90
2019-05-01T00:36:10.461Z,9.50
2019-05-01T00:38:38.935Z,7.60
2019-05-01T00:41:07.475Z,7.60
2019-05-01T00:43:35.977Z,7.50
2019-05-01T00:46:04.537Z,7.50
2019-05-01T00:48:32.995Z,7.50
2019-05-01T00:51:01.480Z,7.40
2019-05-01T00:53:30.185Z,7.50
2019-05-01T00:56:06.192Z,7.40
2019-05-01T00:58:42.309Z,7.40
2019-05-01T01:01:18.430Z,7.30
2019-05-01T01:03:47.024Z,7.30
2019-05-01T01:06:15.569Z,7.30
2019-05-01T01:08:44.117Z,7.30
2019-05-01T01:11:12.589Z,7.30
2019-05-01T01:13:41.081Z,7.30
2019-05-01T01:16:09.558Z,7.30
2019-05-01T01:18:38.048Z,7.30
2019-05-01T01:21:06.528Z,7.30
2019-05-01T01:23:35.800Z,7.20
2019-05-01T01:26:04.343Z,7.30
2019-05-01T01:28:32.815Z,7.40
2019-05-01T01:31:01.280Z,7.30
2019-05-01T01:33:29.737Z,7.30
2019-05-01T01:35:58.207Z,7.40
2019-05-01T01:38:26.686Z,7.20
2019-05-01T01:40:55.460Z,7.20
2019-05-01T01:43:42.686Z,7.10
2019-05-01T01:46:15.646Z,7.10
2019-05-01T01:48:44.188Z,7.30
2019-05-01T01:51:13.112Z,7.30
2019-05-01T01:53:41.720Z,7.40
2019-05-01T01:56:10.256Z,7.40
2019-05-01T01:58:38.824Z,7.50
2019-05-01T02:01:27.349Z,7.50
2019-05-01T02:04:14.070Z,7.40
2019-05-01T02:06:42.529Z,7.20
2019-05-01T02:09:11.059Z,7.40
2019-05-01T02:11:39.649Z,7.40
2019-05-01T02:14:08.107Z,7.40
2019-05-01T02:16:36.582Z,7.20
2019-05-01T02:19:05.193Z,7.00
2019-05-01T02:21:33.709Z,7.00
2019-05-01T02:24:02.182Z,7.10
2019-05-01T02:26:32.373Z,7.20
2019-05-01T02:29:19.109Z,7.00
2019-05-01T02:31:51.620Z,6.90
2019-05-01T02:34:19.390Z,6.80
2019-05-01T02:36:49.520Z,6.90
2019-05-01T02:39:20.155Z,6.70
2019-05-01T02:41:51.688Z,6.50
2019-05-01T02:44:34.756Z,6.40
2019-05-01T02:47:06.336Z,6.40
2019-05-01T02:49:40.811Z,6.40
2019-05-01T02:52:11.766Z,6.30
2019-05-01T02:54:43.668Z,6.20
2019-05-01T02:57:14.911Z,6.20
2019-05-01T02:59:49.871Z,6.20
2019-05-01T03:02:19.278Z,6.20
2019-05-01T03:04:48.552Z,6.20
2019-05-01T03:07:17.462Z,6.20
2019-05-01T03:09:46.708Z,6.20
2019-05-01T03:12:18.263Z,6.20
2019-05-01T03:14:49.477Z,6.10
2019-05-01T03:17:35.326Z,6.10
2019-05-01T03:20:12.118Z,6.10
2019-05-01T03:22:42.030Z,6.00
2019-05-01T03:25:10.561Z,6.00
2019-05-01T03:27:39.547Z,6.00
2019-05-01T03:30:08.137Z,6.00
2019-05-01T03:32:36.688Z,5.90
2019-05-01T03:35:06.994Z,5.90
2019-05-01T03:37:36.312Z,5.90
2019-05-01T03:40:06.617Z,5.90
2019-05-01T03:42:35.206Z,6.00
2019-05-01T03:45:05.094Z,6.10
2019-05-01T03:47:34.081Z,6.00
2019-05-01T03:50:02.687Z,5.90
2019-05-01T03:52:31.206Z,5.80
2019-05-01T03:55:00.029Z,5.80
2019-05-01T03:57:29.027Z,5.80
2019-05-01T03:59:57.488Z,5.70
2019-05-01T04:02:33.781Z,5.70
2019-05-01T04:04:57.976Z,5.60
2019-05-01T04:07:26.865Z,5.60
2019-05-01T04:09:55.323Z,5.60
2019-05-01T04:12:24.019Z,5.60
2019-05-01T04:14:52.541Z,5.60
2019-05-01T04:17:22.720Z,5.60
2019-05-01T04:19:51.541Z,5.60
2019-05-01T04:22:20.139Z,5.60
2019-05-01T04:24:49.424Z,5.60
2019-05-01T04:27:19.561Z,5.60
2019-05-01T04:29:53.713Z,5.60
2019-05-01T04:32:23.992Z,5.60
2019-05-01T04:34:59.883Z,5.60
2019-05-01T04:37:28.895Z,5.60
2019-05-01T04:39:58.009Z,5.70
2019-05-01T04:42:26.535Z,5.70
2019-05-01T04:44:55.130Z,5.70
2019-05-01T04:47:24.250Z,5.70
2019-05-01T04:49:53.324Z,5.80
2019-05-01T04:52:21.774Z,5.80
2019-05-01T04:54:50.248Z,5.80
2019-05-01T04:57:18.839Z,5.80
2019-05-01T04:59:47.309Z,5.90
2019-05-01T05:02:17.469Z,6.00
2019-05-01T05:04:46.257Z,6.00
2019-05-01T05:07:14.779Z,6.10
2019-05-01T05:09:44.951Z,6.10
2019-05-01T05:12:31.530Z,6.40
2019-05-01T05:15:08.026Z,6.60
2019-05-01T05:17:36.819Z,6.70
2019-05-01T05:20:08.056Z,6.60
2019-05-01T05:22:36.547Z,6.80
2019-05-01T05:25:06.005Z,6.90
2019-05-01T05:27:35.099Z,6.80
2019-05-01T05:30:04.630Z,6.80
2019-05-01T05:32:35.784Z,7.10
2019-05-01T05:35:06.656Z,7.20
2019-05-01T05:37:57.833Z,7.20
2019-05-01T05:40:29.939Z,7.50
2019-05-01T05:42:58.396Z,7.70
2019-05-01T05:45:27.196Z,7.70
2019-05-01T05:47:56.520Z,7.60
2019-05-01T05:50:26.676Z,7.70
2019-05-01T05:53:02.449Z,7.70
2019-05-01T05:55:37.590Z,7.80
2019-05-01T05:58:09.740Z,7.80
2019-05-01T06:00:58.956Z,7.90
2019-05-01T06:03:48.550Z,8.00
2019-05-01T06:06:33.742Z,8.10
2019-05-01T06:09:09.054Z,8.10
2019-05-01T06:11:53.048Z,8.20
2019-05-01T06:14:39.823Z,8.40
2019-05-01T06:17:10.067Z,8.40
2019-05-01T06:19:40.233Z,8.50
2019-05-01T06:22:13.948Z,8.60
2019-05-01T06:24:47.893Z,8.70
2019-05-01T06:27:17.689Z,8.80
2019-05-01T06:29:46.789Z,8.90
2019-05-01T06:32:15.261Z,9.10
2019-05-01T06:34:44.115Z,9.20
2019-05-01T06:37:15.069Z,9.20
2019-05-01T06:39:47.955Z,9.30
2019-05-01T06:42:15.260Z,9.30
2019-05-01T06:44:53.241Z,9.50
2019-05-01T06:47:29.420Z,9.60
2019-05-01T06:50:19.941Z,9.60
2019-05-01T06:52:49.001Z,9.60
2019-05-01T06:55:17.595Z,9.60
2019-05-01T06:57:46.390Z,9.70
2019-05-01T07:00:17.526Z,9.70
2019-05-01T07:02:49.186Z,9.80
2019-05-01T07:05:19.306Z,9.90
2019-05-01T07:07:52.888Z,9.90
2019-05-01T07:10:29.875Z,10.00
2019-05-01T07:12:48.330Z,10.00
2019-05-01T07:15:17.013Z,10.00
2019-05-01T07:17:47.875Z,10.10
2019-05-01T07:20:18.208Z,10.10
2019-05-01T07:22:48.325Z,10.10
2019-05-01T07:25:18.127Z,10.20
2019-05-01T07:27:46.601Z,10.30
2019-05-01T07:30:20.877Z,10.30
2019-05-01T07:32:49.755Z,10.50
2019-05-01T07:35:18.287Z,10.50
2019-05-01T07:37:46.983Z,10.60
2019-05-01T07:40:16.356Z,10.70
2019-05-01T07:42:48.254Z,10.80
2019-05-01T07:45:28.277Z,10.90
2019-05-01T07:48:00.926Z,10.90
2019-05-01T07:50:31.871Z,10.90
2019-05-01T07:52:59.328Z,11.00
2019-05-01T07:55:37.422Z,11.00
2019-05-01T07:58:10.514Z,11.10
2019-05-01T08:00:48.678Z,11.10
2019-05-01T08:03:17.240Z,11.10
2019-05-01T08:05:46.756Z,11.20
2019-05-01T08:08:15.517Z,11.30
2019-05-01T08:10:43.984Z,11.30
2019-05-01T08:13:12.448Z,11.40
2019-05-01T08:15:40.994Z,11.50
2019-05-01T08:18:23.990Z,11.60
2019-05-01T08:20:54.612Z,11.70
2019-05-01T08:23:23.092Z,11.80
2019-05-01T08:25:51.669Z,11.90
2019-05-01T08:28:38.410Z,12.10
2019-05-01T08:31:27.794Z,12.20
2019-05-01T08:33:56.924Z,12.30
2019-05-01T08:36:25.376Z,12.20
2019-05-01T08:38:53.920Z,12.30
2019-05-01T08:41:22.396Z,12.50
2019-05-01T08:43:54.216Z,12.70
2019-05-01T08:46:31.679Z,12.90
2019-05-01T08:49:16.593Z,12.70
2019-05-01T08:51:45.132Z,12.60
2019-05-01T08:54:13.619Z,12.70
2019-05-01T08:56:43.694Z,12.70
2019-05-01T08:59:12.972Z,12.70
2019-05-01T09:01:41.540Z,12.80
2019-05-01T09:04:12.989Z,12.90
2019-05-01T09:06:43.827Z,12.80
2019-05-01T09:09:10.463Z,12.80
2019-05-01T09:11:38.966Z,12.90
2019-05-01T09:14:07.494Z,12.90
2019-05-01T09:16:36.108Z,13.00
2019-05-01T09:19:04.733Z,13.10
2019-05-01T09:21:37.655Z,13.20
2019-05-01T09:24:03.555Z,13.40
2019-05-01T09:26:45.242Z,13.30
2019-05-01T09:29:17.864Z,13.20
2019-05-01T09:31:46.545Z,13.10
2019-05-01T09:34:19.101Z,13.10
2019-05-01T09:36:45.341Z,13.10
2019-05-01T09:39:15.528Z,13.10
2019-05-01T09:41:47.443Z,13.10
2019-05-01T09:44:14.406Z,13.10
2019-05-01T09:46:43.073Z,13.20
2019-05-01T09:49:14.301Z,13.30
2019-05-01T09:51:47.468Z,13.50
2019-05-01T09:54:21.426Z,13.60
2019-05-01T09:56:49.990Z,13.70
2019-05-01T09:59:19.151Z,13.60
2019-05-01T10:01:47.781Z,13.60
2019-05-01T10:04:16.253Z,13.80
2019-05-01T10:06:47.640Z,14.00
2019-05-01T10:09:16.887Z,13.90
2019-05-01T10:11:48.910Z,14.10
2019-05-01T10:14:16.659Z,14.10
2019-05-01T10:16:49.247Z,14.20
2019-05-01T10:19:17.764Z,14.30
2019-05-01T10:21:46.309Z,14.30
2019-05-01T10:24:14.845Z,14.20
2019-05-01T10:26:44.942Z,14.20
2019-05-01T10:29:15.083Z,14.20
2019-05-01T10:32:00.025Z,14.20
2019-05-01T10:34:47.564Z,14.10
2019-05-01T10:37:16.039Z,14.10
2019-05-01T10:39:44.597Z,14.30
2019-05-01T10:42:13.120Z,16.40
2019-05-01T10:44:41.628Z,20.90
2019-05-01T10:47:10.094Z,23.50
2019-05-01T10:49:38.549Z,24.80
2019-05-01T10:52:14.037Z,26.40
2019-05-01T10:54:37.196Z,26.90
2019-05-01T10:57:05.770Z,27.30
2019-05-01T10:59:34.329Z,27.20
2019-05-01T11:02:04.508Z,28.40
2019-05-01T11:04:32.976Z,28.20
2019-05-01T11:07:01.450Z,26.40
2019-05-01T11:09:29.947Z,27.10
2019-05-01T11:12:03.160Z,28.70
2019-05-01T11:14:31.012Z,28.90
2019-05-01T11:16:59.512Z,27.50
2019-05-01T11:19:35.608Z,27.90
2019-05-01T11:22:39.983Z,28.90
2019-05-01T11:24:47.729Z,30.10
2019-05-01T11:27:16.207Z,28.90
2019-05-01T11:29:44.697Z,29.10
2019-05-01T11:32:20.420Z,28.40
2019-05-01T11:34:50.530Z,28.40
2019-05-01T11:37:20.624Z,28.90
2019-05-01T11:39:56.567Z,29.10
2019-05-01T11:42:33.307Z,30.30
2019-05-01T11:45:01.886Z,30.90
2019-05-01T11:47:30.344Z,30.00
2019-05-01T11:49:58.830Z,30.80
2019-05-01T11:52:27.309Z,30.40
2019-05-01T11:55:04.102Z,29.80
2019-05-01T11:57:35.444Z,30.00
2019-05-01T12:00:06.603Z,30.10
2019-05-01T12:02:35.089Z,30.30
2019-05-01T12:05:05.024Z,30.20
2019-05-01T12:07:36.384Z,30.40
2019-05-01T12:10:14.414Z,28.80
2019-05-01T12:12:51.011Z,29.10
2019-05-01T12:15:22.930Z,30.20
2019-05-01T12:17:53.064Z,29.70
2019-05-01T12:20:27.635Z,28.90
2019-05-01T12:23:02.802Z,28.80
2019-05-01T12:25:32.844Z,30.00
2019-05-01T12:28:01.314Z,30.10
2019-05-01T12:30:34.349Z,31.10
2019-05-01T12:33:07.215Z,31.30
2019-05-01T12:35:39.237Z,30.70
2019-05-01T12:38:10.461Z,30.40
2019-05-01T12:40:38.992Z,29.50
2019-05-01T12:43:12.399Z,29.40
2019-05-01T12:45:43.231Z,30.30
2019-05-01T12:48:19.585Z,29.90
2019-05-01T12:50:44.625Z,29.80
2019-05-01T12:53:22.822Z,28.00
2019-05-01T12:55:55.855Z,27.30
2019-05-01T12:58:28.912Z,26.40
2019-05-01T13:00:57.426Z,27.40
2019-05-01T13:03:26.006Z,27.30
2019-05-01T13:05:59.000Z,28.00
2019-05-01T13:08:27.463Z,29.60
2019-05-01T13:10:57.477Z,30.40
2019-05-01T13:13:28.337Z,30.30
2019-05-01T13:15:58.349Z,30.50
2019-05-01T13:18:29.896Z,32.20
2019-05-01T13:20:58.391Z,30.10
2019-05-01T13:23:31.360Z,28.20
2019-05-01T13:26:03.015Z,26.00
2019-05-01T13:28:37.036Z,25.30
2019-05-01T13:31:14.750Z,24.50
2019-05-01T13:33:43.250Z,24.40
2019-05-01T13:36:14.901Z,23.60
2019-05-01T13:38:45.890Z,23.40
2019-05-01T13:41:17.718Z,23.00
2019-05-01T13:43:51.634Z,22.60
2019-05-01T13:46:23.235Z,24.40
2019-05-01T13:48:51.696Z,27.00
2019-05-01T13:51:20.165Z,27.90
2019-05-01T13:53:48.628Z,28.90
2019-05-01T13:56:21.476Z,29.50
2019-05-01T13:58:50.011Z,29.50
2019-05-01T14:01:19.031Z,29.70
2019-05-01T14:03:47.495Z,28.00
2019-05-01T14:06:15.979Z,27.00
2019-05-01T14:08:44.431Z,26.70
2019-05-01T14:11:12.919Z,28.00
2019-05-01T14:13:41.458Z,25.60
2019-05-01T14:16:09.968Z,25.40
2019-05-01T14:18:38.433Z,24.90
2019-05-01T14:21:23.615Z,25.50
2019-05-01T14:24:08.492Z,26.50
2019-05-01T14:26:36.954Z,26.30
2019-05-01T14:29:05.529Z,26.90
2019-05-01T14:31:33.983Z,27.80
2019-05-01T14:34:02.451Z,27.90
2019-05-01T14:36:30.925Z,26.70
2019-05-01T14:38:59.383Z,25.00
2019-05-01T14:41:27.838Z,25.20
2019-05-01T14:43:56.307Z,26.60
2019-05-01T14:46:24.783Z,27.90
2019-05-01T14:48:53.275Z,27.50
2019-05-01T14:51:21.979Z,26.10
2019-05-01T14:53:50.587Z,26.60
2019-05-01T14:56:19.053Z,25.60
2019-05-01T14:58:47.507Z,25.70
2019-05-01T15:01:15.991Z,25.30
2019-05-01T15:03:44.503Z,24.60
2019-05-01T15:06:13.056Z,24.80
2019-05-01T15:08:41.588Z,25.10
2019-05-01T15:11:10.038Z,26.30
2019-05-01T15:13:43.067Z,27.30
2019-05-01T15:16:22.274Z,27.20
2019-05-01T15:19:04.519Z,27.90
2019-05-01T15:21:33.009Z,27.20
2019-05-01T15:24:01.480Z,27.10
2019-05-01T15:26:29.941Z,27.20
2019-05-01T15:28:58.408Z,27.20
2019-05-01T15:31:26.857Z,26.10
2019-05-01T15:33:55.349Z,26.00
2019-05-01T15:36:23.816Z,26.30
2019-05-01T15:38:52.263Z,27.00
2019-05-01T15:41:25.030Z,27.30
2019-05-01T15:44:03.814Z,27.40
2019-05-01T15:46:33.314Z,27.10
2019-05-01T15:49:01.764Z,28.00
2019-05-01T15:51:30.283Z,27.60
2019-05-01T15:53:58.774Z,25.70
2019-05-01T15:56:27.324Z,24.50
2019-05-01T15:58:55.873Z,24.20
2019-05-01T16:01:24.348Z,24.40
2019-05-01T16:03:52.897Z,24.90
2019-05-01T16:06:21.364Z,24.30
2019-05-01T16:08:49.896Z,24.00
2019-05-01T16:11:32.057Z,23.60
2019-05-01T16:14:01.118Z,23.40
2019-05-01T16:16:29.651Z,22.30
2019-05-01T16:18:58.119Z,22.30
2019-05-01T16:21:26.568Z,22.60
2019-05-01T16:23:55.030Z,22.80
2019-05-01T16:26:24.154Z,22.70
2019-05-01T16:28:52.656Z,23.10
2019-05-01T16:31:21.259Z,23.10
2019-05-01T16:33:49.768Z,22.70
2019-05-01T16:36:20.380Z,22.90
2019-05-01T16:39:05.181Z,23.30
2019-05-01T16:41:33.739Z,23.00
2019-05-01T16:44:02.189Z,22.90
2019-05-01T16:46:30.652Z,22.70
2019-05-01T16:48:59.106Z,22.80
2019-05-01T16:51:27.668Z,23.30
2019-05-01T16:53:56.152Z,24.40
2019-05-01T16:56:25.497Z,23.80
2019-05-01T16:58:54.016Z,23.20
2019-05-01T17:01:24.184Z,22.30
2019-05-01T17:04:00.302Z,23.90
2019-05-01T17:06:39.689Z,24.70
2019-05-01T17:09:20.883Z,24.80
2019-05-01T17:11:49.334Z,24.00
2019-05-01T17:14:18.732Z,22.70
2019-05-01T17:16:47.250Z,22.30
2019-05-01T17:19:15.773Z,22.10
2019-05-01T17:21:44.305Z,21.20
2019-05-01T17:24:20.258Z,21.00
2019-05-01T17:26:48.768Z,20.50
2019-05-01T17:29:17.224Z,20.30
2019-05-01T17:31:45.758Z,19.70
2019-05-01T17:34:14.227Z,19.10
2019-05-01T17:36:42.698Z,19.40
2019-05-01T17:39:11.903Z,19.20
2019-05-01T17:41:40.371Z,19.20
2019-05-01T17:44:08.891Z,19.10
2019-05-01T17:46:37.427Z,18.70
2019-05-01T17:49:09.288Z,18.50
2019-05-01T17:51:36.075Z,18.30
2019-05-01T17:54:04.535Z,18.10
2019-05-01T17:56:33.003Z,18.00
2019-05-01T17:59:01.583Z,17.80
2019-05-01T18:01:33.390Z,17.70
2019-05-01T18:04:12.519Z,17.60
2019-05-01T18:06:46.490Z,17.40
2019-05-01T18:09:15.694Z,17.40
2019-05-01T18:11:47.244Z,17.30
2019-05-01T18:14:14.443Z,17.20
2019-05-01T18:16:42.908Z,17.20
2019-05-01T18:19:11.364Z,17.00
2019-05-01T18:22:00.791Z,16.90
2019-05-01T18:24:39.048Z,16.80
2019-05-01T18:27:26.486Z,17.00
2019-05-01T18:29:56.675Z,17.00
2019-05-01T18:32:32.816Z,16.80
2019-05-01T18:35:03.068Z,16.50
2019-05-01T18:37:35.107Z,16.30
2019-05-01T18:40:09.192Z,16.10
2019-05-01T18:42:37.655Z,15.90
2019-05-01T18:45:12.230Z,15.70
2019-05-01T18:47:40.674Z,15.50
2019-05-01T18:50:09.134Z,15.30
2019-05-01T18:52:39.137Z,15.10
2019-05-01T18:55:07.725Z,14.90
2019-05-01T18:57:36.504Z,14.60
2019-05-01T19:00:06.863Z,14.50
2019-05-01T19:02:35.319Z,14.40
2019-05-01T19:05:08.901Z,14.50
2019-05-01T19:07:35.410Z,14.40
2019-05-01T19:10:05.120Z,14.30
2019-05-01T19:12:33.652Z,14.20
2019-05-01T19:15:05.563Z,14.10
2019-05-01T19:17:32.451Z,14.10
2019-05-01T19:20:00.910Z,14.10
2019-05-01T19:22:29.379Z,14.00
2019-05-01T19:24:57.910Z,13.90
2019-05-01T19:27:26.370Z,13.70
2019-05-01T19:29:57.795Z,13.70
2019-05-01T19:32:25.409Z,13.60
2019-05-01T19:34:53.872Z,13.50
2019-05-01T19:37:23.987Z,13.40
2019-05-01T19:39:53.805Z,13.30
2019-05-01T19:42:23.675Z,13.40
2019-05-01T19:44:56.255Z,13.50
2019-05-01T19:47:22.593Z,13.50
2019-05-01T19:49:54.199Z,13.40
2019-05-01T19:52:21.380Z,13.40
2019-05-01T19:54:49.884Z,13.20
2019-05-01T19:57:18.863Z,13.00
2019-05-01T19:59:47.492Z,13.00
2019-05-01T20:02:17.316Z,13.00
2019-05-01T20:04:50.610Z,12.70
2019-05-01T20:07:19.760Z,12.50
2019-05-01T20:09:56.749Z,12.30
2019-05-01T20:12:17.066Z,12.30
2019-05-01T20:14:45.535Z,12.10
2019-05-01T20:17:14.097Z,12.50
2019-05-01T20:19:42.605Z,12.10
2019-05-01T20:22:11.071Z,12.10
2019-05-01T20:24:39.861Z,12.10
2019-05-01T20:27:09.797Z,12.10
2019-05-01T20:29:40.327Z,12.10
2019-05-01T20:32:08.504Z,11.90
2019-05-01T20:34:37.061Z,11.70
2019-05-01T20:37:05.535Z,11.60
2019-05-01T20:39:34.089Z,11.50
2019-05-01T20:42:02.933Z,11.40
2019-05-01T20:44:31.403Z,11.30
2019-05-01T20:47:02.598Z,11.20
2019-05-01T20:49:30.098Z,11.20
2019-05-01T20:51:58.577Z,11.20
2019-05-01T20:54:27.108Z,11.30
2019-05-01T20:57:03.146Z,11.10
2019-05-01T20:59:35.286Z,10.90
2019-05-01T21:02:07.675Z,10.70
2019-05-01T21:04:33.701Z,10.70
2019-05-01T21:07:19.947Z,10.70
2019-05-01T21:09:57.733Z,10.70
2019-05-01T21:12:27.029Z,10.60
2019-05-01T21:14:55.557Z,10.50
2019-05-01T21:17:24.116Z,10.40
2019-05-01T21:19:54.329Z,10.30
2019-05-01T21:22:23.425Z,10.30
2019-05-01T21:24:53.298Z,10.30
2019-05-01T21:27:21.849Z,10.20
2019-05-01T21:29:50.298Z,10.00
2019-05-01T21:32:26.147Z,9.90
2019-05-01T21:34:48.927Z,9.80
2019-05-01T21:37:17.424Z,9.80
2019-05-01T21:39:45.934Z,9.90
2019-05-01T21:42:15.943Z,9.90
2019-05-01T21:44:44.562Z,9.80
2019-05-01T21:47:13.932Z,9.80
2019-05-01T21:49:43.075Z,9.70
2019-05-01T21:52:13.372Z,9.70
2019-05-01T21:54:41.817Z,9.60
2019-05-01T21:57:11.866Z,9.50
2019-05-01T21:59:44.831Z,9.40
2019-05-01T22:02:11.987Z,9.30
2019-05-01T22:04:40.868Z,9.40
2019-05-01T22:07:09.313Z,9.40
2019-05-01T22:09:39.151Z,9.20
2019-05-01T22:12:08.299Z,9.10
2019-05-01T22:14:45.281Z,8.90
2019-05-01T22:17:15.519Z,8.70
2019-05-01T22:19:44.051Z,8.70
2019-05-01T22:22:30.423Z,8.70
2019-05-01T22:25:00.534Z,8.60
2019-05-01T22:27:33.414Z,8.60
2019-05-01T22:30:12.714Z,8.70
2019-05-01T22:32:42.984Z,8.70
2019-05-01T22:35:19.181Z,8.80
2019-05-01T22:37:47.633Z,8.80
2019-05-01T22:40:17.931Z,8.80
2019-05-01T22:42:46.403Z,8.60
2019-05-01T22:45:17.929Z,8.40
2019-05-01T22:47:50.715Z,8.20
2019-05-01T22:50:16.848Z,8.10
2019-05-01T22:52:45.307Z,8.10
2019-05-01T22:55:15.396Z,8.10
2019-05-01T22:57:43.954Z,8.00
2019-05-01T23:00:41.461Z,7.90
2019-05-01T23:03:11.648Z,8.00
2019-05-01T23:05:40.092Z,8.00
2019-05-01T23:08:09.378Z,8.00
2019-05-01T23:10:41.863Z,8.00
2019-05-01T23:13:08.000Z,8.00
2019-05-01T23:15:36.457Z,8.10
2019-05-01T23:18:04.970Z,8.00
2019-05-01T23:20:34.780Z,8.00
2019-05-01T23:23:03.736Z,8.00
2019-05-01T23:25:36.672Z,7.90
2019-05-01T23:28:04.293Z,7.90
2019-05-01T23:30:32.675Z,7.90
2019-05-01T23:33:01.135Z,7.80
2019-05-01T23:35:29.660Z,7.80
2019-05-01T23:37:58.195Z,8.10
2019-05-01T23:40:26.645Z,8.10
2019-05-01T23:42:55.104Z,8.10
2019-05-01T23:45:23.664Z,8.10
2019-05-01T23:47:52.168Z,8.10
2019-05-01T23:50:20.620Z,8.00
2019-05-01T23:52:49.108Z,8.10
2019-05-01T23:55:17.552Z,7.90
2019-05-01T23:57:46.024Z,7.80
